Time;durP1;ratioP1;P1;durP2;ratioP2;P2;SDS_P1;SDS_P2;PMS_P1;PMS_P2;Temp;Humidity;BMP_temperature;BMP_pressure;BME280_temperature;BME280_humidity;BME280_pressure;Samples;Min_cycle;Max_cycle;Signal;HPM_P1;HPM_P2
2021/01/06 00:01:42;;;;;;;;;;;3.20;99.90;;;;;;5091929;28;19932;-72
2021/01/06 00:04:08;;;;;;;;;;;3.20;99.90;;;;;;5092156;28;19973;-72
2021/01/06 00:06:36;;;;;;;;;;;3.20;99.90;;;;;;5073146;28;19931;-72
2021/01/06 00:09:04;;;;;;;;;;;3.20;99.90;;;;;;5071704;28;19928;-72
2021/01/06 00:11:32;;;;;;;;;;;3.20;99.90;;;;;;5071349;28;20335;-72
2021/01/06 00:13:58;;;;;;;;;;;3.20;99.90;;;;;;5071588;28;19986;-72
2021/01/06 00:16:24;;;;;;;;;;;3.20;99.90;;;;;;5073689;28;20340;-72
2021/01/06 00:18:51;;;;;;;;;;;3.20;99.90;;;;;;5074990;28;20286;-72
2021/01/06 00:21:17;;;;;;;;;;;3.20;99.90;;;;;;5075276;28;19929;-72
2021/01/06 00:23:43;;;;;;;;;;;3.20;99.90;;;;;;5075295;28;19924;-72
2021/01/06 00:26:09;;;;;;;;;;;3.20;99.90;;;;;;5075123;28;20389;-72
2021/01/06 00:28:36;;;;;;;;;;;3.30;99.90;;;;;;5075007;28;19924;-72
2021/01/06 00:31:02;;;;;;;;;;;3.30;99.90;;;;;;5074870;28;20419;-72
2021/01/06 00:33:29;;;;;;;;;;;3.30;99.90;;;;;;5075223;28;19932;-72
2021/01/06 00:35:56;;;;;;;;;;;3.30;99.90;;;;;;5075206;28;19974;-72
2021/01/06 00:38:22;;;;;;;;;;;3.30;99.90;;;;;;5074714;28;19978;-72
2021/01/06 00:40:48;;;;;;;;;;;3.30;99.90;;;;;;5088738;28;19928;-72
2021/01/06 00:43:15;;;;;;;;;;;3.40;99.90;;;;;;5095220;28;19974;-72
2021/01/06 00:45:42;;;;;;;;;;;3.40;99.90;;;;;;5095309;28;20330;-72
2021/01/06 00:48:09;;;;;;;;;;;3.30;99.90;;;;;;5095265;28;19924;-72
2021/01/06 00:50:35;;;;;;;;;;;3.30;99.90;;;;;;5094992;28;19931;-72
2021/01/06 00:53:02;;;;;;;;;;;3.20;99.90;;;;;;5095028;28;20301;-72
2021/01/06 00:55:28;;;;;;;;;;;3.20;99.90;;;;;;5094756;28;19950;-72
2021/01/06 00:57:55;;;;;;;;;;;3.30;99.90;;;;;;5095116;28;19924;-72
2021/01/06 01:00:26;;;;;;;;;;;3.20;99.90;;;;;;5094422;28;19924;-72
2021/01/06 01:02:52;;;;;;;;;;;3.10;99.90;;;;;;5094927;28;19924;-72
2021/01/06 01:05:19;;;;;;;;;;;3.10;99.90;;;;;;5094623;28;19924;-72
2021/01/06 01:07:45;;;;;;;;;;;3.10;99.90;;;;;;5094844;28;19924;-72
2021/01/06 01:10:20;;;;;;;;;;;3.10;99.90;;;;;;5094357;28;20288;-72
2021/01/06 01:12:48;;;;;;;;;;;3.10;99.90;;;;;;5094471;28;19936;-72
2021/01/06 01:15:14;;;;;;;;;;;3.20;99.90;;;;;;5094621;28;20065;-72
2021/01/06 01:17:43;;;;;;;;;;;3.20;99.90;;;;;;5094746;28;19985;-72
2021/01/06 01:20:11;;;;;;;;;;;3.10;99.90;;;;;;5094134;28;19927;-72
2021/01/06 01:22:37;;;;;;;;;;;3.10;99.90;;;;;;5094468;28;19985;-72
2021/01/06 01:25:03;;;;;;;;;;;3.20;99.90;;;;;;5094399;28;19924;-73
2021/01/06 01:27:29;;;;;;;;;;;3.20;99.90;;;;;;5093992;28;20330;-73
2021/01/06 01:29:55;;;;;;;;;;;3.10;99.90;;;;;;5094195;28;19974;-73
2021/01/06 01:32:21;;;;;;;;;;;3.20;99.90;;;;;;5093991;28;19924;-72
2021/01/06 01:34:47;;;;;;;;;;;3.10;99.90;;;;;;5094074;28;20377;-72
2021/01/06 01:37:14;;;;;;;;;;;3.10;99.90;;;;;;5094375;28;19924;-72
2021/01/06 01:39:40;;;;;;;;;;;3.10;99.90;;;;;;5093942;28;19970;-72
2021/01/06 01:42:06;;;;;;;;;;;3.10;99.90;;;;;;5093988;28;19924;-71
2021/01/06 01:44:32;;;;;;;;;;;3.10;99.90;;;;;;5078961;28;20381;-71
2021/01/06 01:47:07;;;;;;;;;;;3.00;99.90;;;;;;5073651;28;19924;-72
2021/01/06 01:49:38;;;;;;;;;;;3.10;99.90;;;;;;5073503;28;19925;-73
2021/01/06 01:52:06;;;;;;;;;;;3.10;99.90;;;;;;5073528;28;19932;-72
2021/01/06 01:54:33;;;;;;;;;;;3.10;99.90;;;;;;5073580;28;19936;-72
2021/01/06 01:57:01;;;;;;;;;;;3.10;99.90;;;;;;5073557;28;20042;-72
2021/01/06 01:59:30;;;;;;;;;;;3.00;99.90;;;;;;5073486;28;19928;-72
2021/01/06 02:01:58;;;;;;;;;;;3.00;99.90;;;;;;5086267;28;19931;-72
2021/01/06 02:04:27;;;;;;;;;;;3.00;99.90;;;;;;5093830;28;19924;-73
2021/01/06 02:06:56;;;;;;;;;;;3.00;99.90;;;;;;5093698;28;19963;-72
2021/01/06 02:09:26;;;;;;;;;;;3.00;99.90;;;;;;5092798;28;19924;-72
2021/01/06 02:11:56;;;;;;;;;;;3.00;99.90;;;;;;5093434;28;19924;-72
2021/01/06 02:14:28;;;;;;;;;;;2.90;99.90;;;;;;5093547;28;19924;-73
2021/01/06 02:16:58;;;;;;;;;;;3.00;99.90;;;;;;5093393;28;19931;-72
2021/01/06 02:19:27;;;;;;;;;;;3.10;99.90;;;;;;5093277;28;19924;-72
2021/01/06 02:21:54;;;;;;;;;;;3.00;99.90;;;;;;5092922;28;19924;-72
2021/01/06 02:24:21;;;;;;;;;;;3.10;99.90;;;;;;5093209;28;19956;-72
2021/01/06 02:26:47;;;;;;;;;;;3.00;99.90;;;;;;5087163;28;19931;-72
2021/01/06 02:29:14;;;;;;;;;;;3.00;99.90;;;;;;5092618;28;19924;-72
2021/01/06 02:31:39;;;;;;;;;;;3.00;99.90;;;;;;5093028;28;19947;-72
2021/01/06 02:34:05;;;;;;;;;;;3.00;99.90;;;;;;5093364;28;20380;-72
2021/01/06 02:36:31;;;;;;;;;;;3.00;99.90;;;;;;5092927;28;19970;-72
2021/01/06 02:38:58;;;;;;;;;;;2.90;99.90;;;;;;5092219;28;19951;-72
2021/01/06 02:41:25;;;;;;;;;;;3.00;99.90;;;;;;5092849;28;19924;-71
2021/01/06 02:43:51;;;;;;;;;;;3.00;99.90;;;;;;5092997;28;19935;-72
2021/01/06 02:46:18;;;;;;;;;;;3.00;99.90;;;;;;5092759;28;19928;-72
2021/01/06 02:48:45;;;;;;;;;;;2.90;99.90;;;;;;5092040;28;19928;-72
2021/01/06 02:51:12;;;;;;;;;;;2.90;99.90;;;;;;5085221;28;19924;-72
2021/01/06 02:53:42;;;;;;;;;;;2.90;99.90;;;;;;5072509;28;20541;-72
2021/01/06 02:56:09;;;;;;;;;;;2.90;99.90;;;;;;5072318;28;19929;-72
2021/01/06 02:58:36;;;;;;;;;;;2.80;99.90;;;;;;5072571;28;19929;-72
2021/01/06 03:01:03;;;;;;;;;;;2.80;99.90;;;;;;5071544;28;20181;-72
2021/01/06 03:03:31;;;;;;;;;;;2.80;99.90;;;;;;5072297;28;20016;-72
2021/01/06 03:06:00;;;;;;;;;;;2.80;99.90;;;;;;5072304;28;20387;-72
2021/01/06 03:08:26;;;;;;;;;;;2.80;99.90;;;;;;5079478;28;19977;-72
2021/01/06 03:10:52;;;;;;;;;;;2.80;99.90;;;;;;5092650;28;20296;-72
2021/01/06 03:13:19;;;;;;;;;;;2.80;99.90;;;;;;5092482;28;19931;-72
2021/01/06 03:15:45;;;;;;;;;;;2.80;99.90;;;;;;5092529;28;19994;-72
2021/01/06 03:18:11;;;;;;;;;;;2.80;99.90;;;;;;5092685;28;20369;-72
2021/01/06 03:20:39;;;;;;;;;;;2.80;99.90;;;;;;5091966;28;20452;-72
2021/01/06 03:23:06;;;;;;;;;;;2.80;99.90;;;;;;5085941;28;19925;-72
2021/01/06 03:25:34;;;;;;;;;;;2.80;99.90;;;;;;5072303;28;19924;-72
2021/01/06 03:28:00;;;;;;;;;;;2.80;99.90;;;;;;5072203;28;19924;-72
2021/01/06 03:30:29;;;;;;;;;;;2.80;99.90;;;;;;5072012;28;19979;-72
2021/01/06 03:33:01;;;;;;;;;;;2.80;99.90;;;;;;5071975;28;19932;-72
2021/01/06 03:35:30;;;;;;;;;;;2.70;99.90;;;;;;5072248;28;19932;-72
2021/01/06 03:37:59;;;;;;;;;;;2.70;99.90;;;;;;5072504;28;19998;-72
2021/01/06 03:40:27;;;;;;;;;;;2.80;99.90;;;;;;5071740;28;19924;-72
2021/01/06 03:42:54;;;;;;;;;;;2.80;99.90;;;;;;5071969;28;19924;-72
2021/01/06 03:45:23;;;;;;;;;;;2.80;99.90;;;;;;5072391;28;19924;-72
2021/01/06 03:47:56;;;;;;;;;;;2.70;99.90;;;;;;5092318;28;19939;-72
2021/01/06 03:50:24;;;;;;;;;;;2.70;99.90;;;;;;5094192;28;19932;-72
2021/01/06 03:52:56;;;;;;;;;;;2.70;99.90;;;;;;5095905;28;20411;-72
2021/01/06 03:55:27;;;;;;;;;;;2.80;99.90;;;;;;5096027;28;19971;-72
2021/01/06 03:57:54;;;;;;;;;;;2.70;99.90;;;;;;5093937;28;19931;-72
2021/01/06 04:00:29;;;;;;;;;;;2.70;99.90;;;;;;5095754;28;19924;-71
2021/01/06 04:02:56;;;;;;;;;;;2.70;99.90;;;;;;5078753;28;19925;-71
2021/01/06 04:05:24;;;;;;;;;;;2.70;99.90;;;;;;5075612;28;20227;-71
2021/01/06 04:07:52;;;;;;;;;;;2.60;99.90;;;;;;5079512;28;19939;-71
2021/01/06 04:10:20;;;;;;;;;;;2.60;99.90;;;;;;5095434;28;19928;-71
2021/01/06 04:12:46;;;;;;;;;;;2.60;99.90;;;;;;5095537;28;19932;-71
2021/01/06 04:15:13;;;;;;;;;;;2.60;99.90;;;;;;5095826;28;19924;-71
2021/01/06 04:17:41;;;;;;;;;;;2.60;99.90;;;;;;5095657;28;19924;-71
2021/01/06 04:20:19;;;;;;;;;;;2.60;99.90;;;;;;5095597;28;19946;-71
2021/01/06 04:22:46;;;;;;;;;;;2.60;99.90;;;;;;5095626;28;19950;-71
2021/01/06 04:25:14;;;;;;;;;;;2.60;99.90;;;;;;5095416;28;20384;-71
2021/01/06 04:27:41;;;;;;;;;;;2.60;99.90;;;;;;5095707;28;19924;-71
2021/01/06 04:30:10;;;;;;;;;;;2.50;99.90;;;;;;5095445;28;20337;-71
2021/01/06 04:32:36;;;;;;;;;;;2.50;99.90;;;;;;5078172;28;19931;-71
2021/01/06 04:35:02;;;;;;;;;;;2.50;99.90;;;;;;5091717;28;19924;-71
2021/01/06 04:37:29;;;;;;;;;;;2.50;99.90;;;;;;5094922;28;19982;-71
2021/01/06 04:39:55;;;;;;;;;;;2.40;99.90;;;;;;5094847;28;20307;-71
2021/01/06 04:42:21;;;;;;;;;;;2.50;99.90;;;;;;5095118;28;19924;-69
2021/01/06 04:44:55;;;;;;;;;;;2.50;99.90;;;;;;5095426;28;19931;-70
2021/01/06 04:47:36;;;;;;;;;;;2.50;99.90;;;;;;5094945;28;20312;-73
2021/01/06 04:50:25;;;;;;;;;;;2.50;99.90;;;;;;5092583;28;20316;-68
2021/01/06 04:52:58;;;;;;;;;;;2.50;99.90;;;;;;5094970;28;19924;-71
2021/01/06 04:55:29;;;;;;;;;;;2.50;99.90;;;;;;5094852;28;19931;-72
2021/01/06 04:58:03;;;;;;;;;;;2.50;99.90;;;;;;5095062;28;19970;-72
2021/01/06 05:00:43;;;;;;;;;;;2.50;99.90;;;;;;5081238;28;19925;-71
2021/01/06 05:03:19;;;;;;;;;;;2.40;99.90;;;;;;5074127;28;19929;-72
2021/01/06 05:05:54;;;;;;;;;;;2.50;99.90;;;;;;5074498;28;19925;-73
2021/01/06 05:08:26;;;;;;;;;;;2.40;99.90;;;;;;5074465;28;19931;-70
2021/01/06 05:10:55;;;;;;;;;;;2.50;99.90;;;;;;5073950;28;20446;-71
2021/01/06 05:13:25;;;;;;;;;;;2.50;99.90;;;;;;5074357;28;19958;-70
2021/01/06 05:15:53;;;;;;;;;;;2.40;99.90;;;;;;5074279;28;19924;-68
2021/01/06 05:18:19;;;;;;;;;;;2.40;99.90;;;;;;5074198;28;20297;-70
2021/01/06 05:20:45;;;;;;;;;;;2.40;99.90;;;;;;5073751;28;19924;-70
2021/01/06 05:23:16;;;;;;;;;;;2.40;99.90;;;;;;5078956;28;19931;-70
2021/01/06 05:25:43;;;;;;;;;;;2.30;99.90;;;;;;5089903;28;19924;-69
2021/01/06 05:28:11;;;;;;;;;;;2.30;99.90;;;;;;5074146;28;20300;-69
2021/01/06 05:30:37;;;;;;;;;;;2.30;99.90;;;;;;5073735;28;19924;-73
2021/01/06 05:33:04;;;;;;;;;;;2.40;99.90;;;;;;5073775;28;19932;-68
2021/01/06 05:35:35;;;;;;;;;;;2.30;99.90;;;;;;5073853;28;19928;-68
2021/01/06 05:38:02;;;;;;;;;;;2.30;99.90;;;;;;5074795;28;19928;-69
2021/01/06 05:40:29;;;;;;;;;;;2.30;99.90;;;;;;5073394;28;19929;-69
2021/01/06 05:42:57;;;;;;;;;;;2.30;99.90;;;;;;5073700;28;19931;-70
2021/01/06 05:45:25;;;;;;;;;;;2.30;99.90;;;;;;5073757;28;19924;-70
2021/01/06 05:47:53;;;;;;;;;;;2.30;99.90;;;;;;5073665;28;20061;-69
2021/01/06 05:50:21;;;;;;;;;;;2.30;99.90;;;;;;5073130;28;19951;-69
2021/01/06 05:52:52;;;;;;;;;;;2.20;99.90;;;;;;5073507;28;19947;-70
2021/01/06 05:55:20;;;;;;;;;;;2.20;99.90;;;;;;5073439;28;20281;-69
2021/01/06 05:57:48;;;;;;;;;;;2.20;99.90;;;;;;5073261;28;19932;-69
2021/01/06 06:00:29;;;;;;;;;;;2.20;99.90;;;;;;5072974;28;19944;-69
2021/01/06 06:03:00;;;;;;;;;;;2.20;99.90;;;;;;5073112;28;19951;-69
2021/01/06 06:05:35;;;;;;;;;;;2.20;99.90;;;;;;5074827;28;19932;-69
2021/01/06 06:08:16;;;;;;;;;;;2.10;99.90;;;;;;5093410;28;19977;-68
2021/01/06 06:10:53;;;;;;;;;;;2.10;99.90;;;;;;5092840;28;19931;-69
2021/01/06 06:13:36;;;;;;;;;;;2.10;99.90;;;;;;5092238;28;19950;-70
2021/01/06 06:16:23;;;;;;;;;;;2.10;99.90;;;;;;5093227;28;19925;-71
2021/01/06 06:18:58;;;;;;;;;;;2.10;99.90;;;;;;5093812;28;19928;-71
2021/01/06 06:21:30;;;;;;;;;;;2.10;99.90;;;;;;5092921;28;19924;-70
2021/01/06 06:24:13;;;;;;;;;;;2.10;99.90;;;;;;5093085;28;19931;-73
2021/01/06 06:26:45;;;;;;;;;;;2.10;99.90;;;;;;5093267;28;20350;-70
2021/01/06 06:29:18;;;;;;;;;;;2.10;99.90;;;;;;5090337;28;19940;-69
2021/01/06 06:31:48;;;;;;;;;;;2.10;99.90;;;;;;5072279;28;20410;-67
2021/01/06 06:34:14;;;;;;;;;;;2.10;99.90;;;;;;5078521;28;19925;-68
2021/01/06 06:36:42;;;;;;;;;;;2.20;99.90;;;;;;5093160;28;20299;-68
2021/01/06 06:39:13;;;;;;;;;;;2.20;99.90;;;;;;5092879;28;20437;-68
2021/01/06 06:41:40;;;;;;;;;;;2.20;99.90;;;;;;5092497;28;19931;-67
2021/01/06 06:44:19;;;;;;;;;;;2.20;99.90;;;;;;5092496;28;19924;-68
2021/01/06 06:46:51;;;;;;;;;;;2.20;99.90;;;;;;5092996;28;19924;-69
2021/01/06 06:49:24;;;;;;;;;;;2.20;99.90;;;;;;5092858;28;19925;-69
2021/01/06 06:51:53;;;;;;;;;;;2.10;99.90;;;;;;5092294;28;19950;-68
2021/01/06 06:54:22;;;;;;;;;;;2.20;99.90;;;;;;5092684;28;19931;-68
2021/01/06 06:56:52;;;;;;;;;;;2.10;99.90;;;;;;5092698;28;20385;-69
2021/01/06 06:59:22;;;;;;;;;;;2.10;99.90;;;;;;5092243;28;19928;-70
2021/01/06 07:01:50;;;;;;;;;;;2.00;99.90;;;;;;5091684;28;19932;-68
2021/01/06 07:04:19;;;;;;;;;;;2.00;99.90;;;;;;5079560;28;19931;-69
2021/01/06 07:06:51;;;;;;;;;;;2.00;99.90;;;;;;5092646;28;19924;-69
2021/01/06 07:09:21;;;;;;;;;;;2.00;99.90;;;;;;5092713;28;20303;-69
2021/01/06 07:11:48;;;;;;;;;;;1.90;99.90;;;;;;5085174;28;19925;-69
2021/01/06 07:14:19;;;;;;;;;;;1.90;99.90;;;;;;5073236;28;19925;-72
2021/01/06 07:16:57;;;;;;;;;;;1.90;99.90;;;;;;5072398;28;19925;-72
2021/01/06 07:19:25;;;;;;;;;;;1.80;99.90;;;;;;5089593;28;19985;-71
2021/01/06 07:21:54;;;;;;;;;;;1.90;99.90;;;;;;5091913;28;20292;-68
2021/01/06 07:24:21;;;;;;;;;;;1.90;99.90;;;;;;5092811;28;19947;-68
2021/01/06 07:26:48;;;;;;;;;;;1.80;99.90;;;;;;5096730;28;19970;-68
2021/01/06 07:29:16;;;;;;;;;;;1.90;99.90;;;;;;5096288;28;19924;-69
2021/01/06 07:31:56;;;;;;;;;;;1.90;99.90;;;;;;5096163;28;19978;-72
2021/01/06 07:34:23;;;;;;;;;;;1.90;99.90;;;;;;5096635;28;20393;-69
2021/01/06 07:36:51;;;;;;;;;;;1.90;99.90;;;;;;5096602;28;19931;-70
2021/01/06 07:39:22;;;;;;;;;;;1.90;99.90;;;;;;5096628;28;19924;-74
2021/01/06 07:41:48;;;;;;;;;;;1.90;99.90;;;;;;5095903;28;19928;-75
2021/01/06 07:44:22;;;;;;;;;;;1.90;99.90;;;;;;5075898;28;19925;-71
2021/01/06 07:46:54;;;;;;;;;;;1.90;99.90;;;;;;5075869;28;19928;-71
2021/01/06 07:49:29;;;;;;;;;;;2.00;99.90;;;;;;5084697;28;19924;-70
2021/01/06 07:51:57;;;;;;;;;;;2.00;99.90;;;;;;5095882;28;19924;-69
2021/01/06 07:54:28;;;;;;;;;;;2.10;99.90;;;;;;5095714;28;19935;-70
2021/01/06 07:56:57;;;;;;;;;;;2.10;99.90;;;;;;5096361;28;19946;-70
2021/01/06 07:59:26;;;;;;;;;;;2.20;99.90;;;;;;5095835;28;19924;-68
2021/01/06 08:01:55;;;;;;;;;;;2.30;99.90;;;;;;5095490;28;20009;-69
2021/01/06 08:04:24;;;;;;;;;;;2.40;99.90;;;;;;5096117;28;19977;-69
2021/01/06 08:06:52;;;;;;;;;;;2.40;99.90;;;;;;5095903;28;19924;-68
2021/01/06 08:09:32;;;;;;;;;;;2.50;99.90;;;;;;5095459;28;19928;-70
2021/01/06 08:12:00;;;;;;;;;;;2.50;99.90;;;;;;5095504;28;19935;-68
2021/01/06 08:14:27;;;;;;;;;;;2.60;99.90;;;;;;5095938;28;19924;-72
2021/01/06 08:16:55;;;;;;;;;;;2.60;99.90;;;;;;5095550;28;19924;-70
2021/01/06 08:19:23;;;;;;;;;;;2.60;99.90;;;;;;5095712;28;19928;-72
2021/01/06 08:21:52;;;;;;;;;;;2.70;99.90;;;;;;5095060;28;20312;-71
2021/01/06 08:24:24;;;;;;;;;;;2.70;99.90;;;;;;5095464;28;19971;-68
2021/01/06 08:26:52;;;;;;;;;;;2.70;99.90;;;;;;5095681;28;19931;-70
2021/01/06 08:29:20;;;;;;;;;;;2.70;99.90;;;;;;5095508;28;19928;-69
2021/01/06 08:31:47;;;;;;;;;;;2.80;99.90;;;;;;5095251;28;20312;-69
2021/01/06 08:34:21;;;;;;;;;;;2.80;99.90;;;;;;5095220;28;19924;-69
2021/01/06 08:36:52;;;;;;;;;;;2.90;99.90;;;;;;5090142;28;19924;-68
2021/01/06 08:39:19;;;;;;;;;;;2.90;99.90;;;;;;5074698;28;19932;-70
2021/01/06 08:41:45;;;;;;;;;;;2.90;99.90;;;;;;5074433;28;19924;-68
2021/01/06 08:44:27;;;;;;;;;;;2.90;99.90;;;;;;5074757;28;19968;-71
2021/01/06 08:46:57;;;;;;;;;;;2.80;99.90;;;;;;5074622;28;20396;-71
2021/01/06 08:49:24;;;;;;;;;;;2.90;99.90;;;;;;5074497;28;19925;-69
2021/01/06 08:51:51;;;;;;;;;;;3.00;99.90;;;;;;5074398;28;19934;-70
2021/01/06 08:54:27;;;;;;;;;;;3.00;99.90;;;;;;5074778;28;19924;-69
2021/01/06 08:56:59;;;;;;;;;;;3.00;99.90;;;;;;5074511;28;19925;-70
2021/01/06 08:59:27;;;;;;;;;;;3.10;99.90;;;;;;5074295;28;19928;-70
2021/01/06 09:01:57;;;;;;;;;;;3.10;99.90;;;;;;5088246;28;19931;-69
2021/01/06 09:04:34;;;;;;;;;;;3.10;99.90;;;;;;5094556;28;19935;-71
2021/01/06 09:07:09;;;;;;;;;;;3.10;99.90;;;;;;5074506;28;19931;-71
2021/01/06 09:09:38;;;;;;;;;;;3.20;99.90;;;;;;5074215;28;19959;-70
2021/01/06 09:12:22;;;;;;;;;;;3.20;99.90;;;;;;5073652;28;19924;-69
2021/01/06 09:14:49;;;;;;;;;;;3.30;99.90;;;;;;5074270;28;19924;-69
2021/01/06 09:17:17;;;;;;;;;;;3.40;99.90;;;;;;5074112;28;19978;-71
2021/01/06 09:19:45;;;;;;;;;;;3.50;99.90;;;;;;5073903;28;19924;-68
2021/01/06 09:22:12;;;;;;;;;;;3.60;99.90;;;;;;5073845;28;20060;-71
2021/01/06 09:24:39;;;;;;;;;;;3.70;99.90;;;;;;5073899;28;19928;-71
2021/01/06 09:27:07;;;;;;;;;;;3.70;99.90;;;;;;5080609;28;19924;-70
2021/01/06 09:29:34;;;;;;;;;;;3.80;99.90;;;;;;5094076;28;19983;-70
2021/01/06 09:32:04;;;;;;;;;;;3.90;99.90;;;;;;5087254;28;19924;-70
2021/01/06 09:34:32;;;;;;;;;;;3.90;99.90;;;;;;5073657;28;20385;-70
2021/01/06 09:36:59;;;;;;;;;;;3.90;99.90;;;;;;5073358;28;19929;-68
2021/01/06 09:39:26;;;;;;;;;;;3.90;99.90;;;;;;5074535;28;19940;-69
2021/01/06 09:41:54;;;;;;;;;;;4.00;99.90;;;;;;5073189;28;19935;-71
2021/01/06 09:44:20;;;;;;;;;;;3.90;99.90;;;;;;5073463;28;19924;-69
2021/01/06 09:46:49;;;;;;;;;;;3.90;99.90;;;;;;5073667;28;19932;-69
2021/01/06 09:49:19;;;;;;;;;;;3.90;99.90;;;;;;5074486;28;19978;-68
2021/01/06 09:51:47;;;;;;;;;;;4.00;99.90;;;;;;5073139;28;19925;-69
2021/01/06 09:54:13;;;;;;;;;;;3.90;99.90;;;;;;5073228;28;19928;-71
2021/01/06 09:56:39;;;;;;;;;;;4.00;99.90;;;;;;5073685;28;19924;-71
2021/01/06 09:59:13;;;;;;;;;;;4.00;99.90;;;;;;5073510;28;19924;-71
2021/01/06 10:01:43;;;;;;;;;;;4.00;99.90;;;;;;5072961;28;20326;-73
2021/01/06 10:04:14;;;;;;;;;;;4.00;99.90;;;;;;5073169;28;19925;-69
2021/01/06 10:06:44;;;;;;;;;;;4.00;99.90;;;;;;5072906;28;19974;-69
2021/01/06 10:09:18;;;;;;;;;;;4.00;99.90;;;;;;5072956;28;20381;-69
2021/01/06 10:11:50;;;;;;;;;;;3.70;99.90;;;;;;5072750;28;20003;-69
2021/01/06 10:14:29;;;;;;;;;;;3.80;99.90;;;;;;5073077;28;19970;-75
2021/01/06 10:16:59;;;;;;;;;;;3.80;99.90;;;;;;5078584;28;19924;-73
2021/01/06 10:19:34;;;;;;;;;;;3.80;99.90;;;;;;5093371;28;19925;-74
2021/01/06 10:22:07;;;;;;;;;;;3.90;99.90;;;;;;5092655;28;19932;-67
2021/01/06 10:24:41;;;;;;;;;;;3.90;99.90;;;;;;5093161;28;19931;-67
2021/01/06 10:27:19;;;;;;;;;;;3.90;99.90;;;;;;5093452;28;19924;-67
2021/01/06 10:29:46;;;;;;;;;;;4.00;99.90;;;;;;5092656;28;20384;-67
2021/01/06 10:32:30;;;;;;;;;;;3.90;99.90;;;;;;5093011;28;19924;-67
2021/01/06 10:35:07;;;;;;;;;;;3.90;99.90;;;;;;5093131;28;19924;-68
2021/01/06 10:37:42;;;;;;;;;;;3.90;99.90;;;;;;5092676;28;19931;-69
2021/01/06 10:40:14;;;;;;;;;;;3.80;99.90;;;;;;5092325;28;19971;-69
2021/01/06 10:42:40;;;;;;;;;;;3.70;99.90;;;;;;5092829;28;19924;-69
2021/01/06 10:45:10;;;;;;;;;;;3.70;99.90;;;;;;5087768;28;19924;-68
2021/01/06 10:47:41;;;;;;;;;;;3.70;99.90;;;;;;5084807;28;19924;-69
2021/01/06 10:50:34;;;;;;;;;;;3.70;99.90;;;;;;5083189;28;19924;-73
2021/01/06 10:53:04;;;;;;;;;;;3.70;99.90;;;;;;5072249;28;20404;-70
2021/01/06 10:55:37;;;;;;;;;;;3.60;99.90;;;;;;5072317;28;19924;-69
2021/01/06 10:58:09;;;;;;;;;;;3.60;99.90;;;;;;5072403;28;19925;-69
2021/01/06 11:00:47;;;;;;;;;;;3.60;99.90;;;;;;5071370;28;19925;-69
2021/01/06 11:03:20;;;;;;;;;;;3.70;99.90;;;;;;5072516;28;19924;-69
2021/01/06 11:05:58;;;;;;;;;;;3.80;99.90;;;;;;5072520;28;19925;-69
2021/01/06 11:08:33;;;;;;;;;;;3.80;99.90;;;;;;5072267;28;19932;-69
2021/01/06 11:11:05;;;;;;;;;;;3.80;99.90;;;;;;5071954;28;19932;-69
2021/01/06 11:13:41;;;;;;;;;;;3.80;99.90;;;;;;5071954;28;19925;-69
2021/01/06 11:16:11;;;;;;;;;;;3.70;99.90;;;;;;5072401;28;19931;-69
2021/01/06 11:18:42;;;;;;;;;;;3.70;99.90;;;;;;5072248;28;20011;-69
2021/01/06 11:21:09;;;;;;;;;;;3.70;99.90;;;;;;5071818;28;20060;-69
2021/01/06 11:23:42;;;;;;;;;;;3.70;99.90;;;;;;5071989;28;19985;-69
2021/01/06 11:26:30;;;;;;;;;;;3.70;99.90;;;;;;5072100;28;19925;-69
2021/01/06 11:29:01;;;;;;;;;;;3.70;99.90;;;;;;5072209;28;19925;-69
2021/01/06 11:31:29;;;;;;;;;;;3.80;99.90;;;;;;5071475;28;20389;-69
2021/01/06 11:33:56;;;;;;;;;;;3.80;99.90;;;;;;5071951;28;19925;-69
2021/01/06 11:36:38;;;;;;;;;;;3.80;99.90;;;;;;5071721;28;19994;-69
2021/01/06 11:39:06;;;;;;;;;;;3.70;99.90;;;;;;5072075;28;20380;-69
2021/01/06 11:41:50;;;;;;;;;;;3.70;99.90;;;;;;5071577;28;19971;-69
2021/01/06 11:44:20;;;;;;;;;;;3.70;99.90;;;;;;5072047;28;19986;-69
2021/01/06 11:46:53;;;;;;;;;;;3.70;99.90;;;;;;5071786;28;19928;-69
2021/01/06 11:49:24;;;;;;;;;;;3.80;99.90;;;;;;5071766;28;20401;-69
2021/01/06 11:52:14;;;;;;;;;;;3.80;99.90;;;;;;5071562;28;19970;-69
2021/01/06 11:54:44;;;;;;;;;;;3.80;99.90;;;;;;5071691;28;19932;-69
2021/01/06 11:57:13;;;;;;;;;;;3.80;99.90;;;;;;5071724;28;19985;-70
2021/01/06 11:59:43;;;;;;;;;;;3.80;99.90;;;;;;5071481;28;20312;-70
2021/01/06 12:02:12;;;;;;;;;;;3.70;99.90;;;;;;5086061;28;19970;-71
2021/01/06 12:05:00;;;;;;;;;;;3.70;99.90;;;;;;5092174;28;20353;-71
2021/01/06 12:07:30;;;;;;;;;;;3.90;99.90;;;;;;5091742;28;19924;-71
2021/01/06 12:10:06;;;;;;;;;;;4.10;99.90;;;;;;5091763;28;19931;-72
2021/01/06 12:12:49;;;;;;;;;;;4.20;99.90;;;;;;5094134;28;19924;-73
2021/01/06 12:15:28;;;;;;;;;;;4.20;99.90;;;;;;5075355;28;19924;-72
2021/01/06 12:17:57;;;;;;;;;;;4.30;99.90;;;;;;5075190;28;19924;-73
2021/01/06 12:20:24;;;;;;;;;;;4.30;99.90;;;;;;5085513;28;20292;-69
2021/01/06 12:23:09;;;;;;;;;;;4.30;99.90;;;;;;5095499;28;19931;-68
2021/01/06 12:25:41;;;;;;;;;;;4.40;99.90;;;;;;5095427;28;19924;-71
2021/01/06 12:28:14;;;;;;;;;;;4.40;99.90;;;;;;5095388;28;19924;-69
2021/01/06 12:30:43;;;;;;;;;;;4.50;99.90;;;;;;5078274;28;20381;-71
2021/01/06 12:33:22;;;;;;;;;;;4.50;99.90;;;;;;5075160;28;19983;-70
2021/01/06 12:35:49;;;;;;;;;;;4.40;99.90;;;;;;5075020;28;19936;-71
2021/01/06 12:38:24;;;;;;;;;;;4.30;99.90;;;;;;5074937;28;19931;-73
2021/01/06 12:41:05;;;;;;;;;;;4.10;99.90;;;;;;5074480;28;19924;-66
2021/01/06 12:43:33;;;;;;;;;;;5.00;99.90;;;;;;5074670;28;20395;-69
2021/01/06 12:46:01;;;;;;;;;;;4.00;99.90;;;;;;5093652;28;20393;-70
2021/01/06 12:48:31;;;;;;;;;;;3.90;99.90;;;;;;5094761;28;19981;-68
2021/01/06 12:51:01;;;;;;;;;;;3.90;99.90;;;;;;5074469;28;19931;-72
2021/01/06 12:53:29;;;;;;;;;;;3.80;99.90;;;;;;5074769;28;19935;-68
2021/01/06 12:56:09;;;;;;;;;;;3.70;99.90;;;;;;5074434;28;20373;-73
2021/01/06 12:58:36;;;;;;;;;;;3.60;99.90;;;;;;5074730;28;19925;-68
2021/01/06 13:01:04;;;;;;;;;;;3.60;99.90;;;;;;5074264;28;20373;-70
2021/01/06 13:03:34;;;;;;;;;;;3.60;99.90;;;;;;5074346;28;20400;-69
2021/01/06 13:06:03;;;;;;;;;;;3.50;99.90;;;;;;5074651;28;19925;-70
2021/01/06 13:08:33;;;;;;;;;;;3.50;99.90;;;;;;5074475;28;20293;-71
2021/01/06 13:11:07;;;;;;;;;;;3.40;99.90;;;;;;5074259;28;19933;-71
2021/01/06 13:13:35;;;;;;;;;;;3.40;99.90;;;;;;5087980;28;19924;-73
2021/01/06 13:16:03;;;;;;;;;;;3.40;99.90;;;;;;5094446;28;19924;-72
2021/01/06 13:18:38;;;;;;;;;;;3.40;99.90;;;;;;5094339;28;19974;-70
2021/01/06 13:21:05;;;;;;;;;;;3.40;99.90;;;;;;5094187;28;19924;-68
2021/01/06 13:23:37;;;;;;;;;;;3.40;99.90;;;;;;5093001;28;19932;-69
2021/01/06 13:26:21;;;;;;;;;;;3.40;99.90;;;;;;5094377;28;19969;-71
2021/01/06 13:28:50;;;;;;;;;;;3.40;99.90;;;;;;5094434;28;19981;-69
2021/01/06 13:31:26;;;;;;;;;;;3.30;99.90;;;;;;5093971;28;19947;-70
2021/01/06 13:33:56;;;;;;;;;;;3.30;99.90;;;;;;5094292;28;19930;-69
2021/01/06 13:36:24;;;;;;;;;;;3.30;99.90;;;;;;5094104;28;20300;-69
2021/01/06 13:39:01;;;;;;;;;;;3.20;99.90;;;;;;5094197;28;19924;-69
2021/01/06 13:41:31;;;;;;;;;;;3.20;99.90;;;;;;5093703;28;19928;-69
2021/01/06 13:44:00;;;;;;;;;;;3.20;99.90;;;;;;5094137;28;19932;-69
2021/01/06 13:46:36;;;;;;;;;;;3.20;99.90;;;;;;5094030;28;19924;-69
2021/01/06 13:49:07;;;;;;;;;;;3.20;99.90;;;;;;5093918;28;19924;-69
2021/01/06 13:51:40;;;;;;;;;;;3.20;99.90;;;;;;5093249;28;19928;-69
2021/01/06 13:54:09;;;;;;;;;;;3.20;99.90;;;;;;5094018;28;19925;-69
2021/01/06 13:56:40;;;;;;;;;;;3.20;99.90;;;;;;5093531;28;19931;-69
2021/01/06 13:59:17;;;;;;;;;;;3.10;99.90;;;;;;5093907;28;19924;-69
2021/01/06 14:01:51;;;;;;;;;;;3.10;99.90;;;;;;5093243;28;19924;-69
2021/01/06 14:04:18;;;;;;;;;;;3.20;99.90;;;;;;5093396;28;19924;-69
2021/01/06 14:06:50;;;;;;;;;;;3.10;99.90;;;;;;5093668;28;20015;-69
2021/01/06 14:09:31;;;;;;;;;;;3.10;99.90;;;;;;5093657;28;19978;-69
2021/01/06 14:12:15;;;;;;;;;;;3.00;99.90;;;;;;5093237;28;19931;-69
2021/01/06 14:14:49;;;;;;;;;;;3.00;99.90;;;;;;5093349;28;20001;-69
2021/01/06 14:17:33;;;;;;;;;;;3.00;99.90;;;;;;5093244;28;19924;-69
2021/01/06 14:20:01;;;;;;;;;;;3.00;99.90;;;;;;5092947;28;19928;-69
2021/01/06 14:22:34;;;;;;;;;;;3.00;99.90;;;;;;5093038;28;19935;-69
2021/01/06 14:25:00;;;;;;;;;;;2.90;99.90;;;;;;5093195;28;19936;-69
2021/01/06 14:27:33;;;;;;;;;;;2.90;99.90;;;;;;5093296;28;19924;-69
2021/01/06 14:30:08;;;;;;;;;;;2.80;99.90;;;;;;5092723;28;20388;-69
2021/01/06 14:32:37;;;;;;;;;;;2.80;99.90;;;;;;5092983;28;19924;-69
2021/01/06 14:35:09;;;;;;;;;;;2.80;99.90;;;;;;5091903;28;19924;-69
2021/01/06 14:37:42;;;;;;;;;;;2.80;99.90;;;;;;5092648;28;20000;-69
2021/01/06 14:40:21;;;;;;;;;;;2.80;99.90;;;;;;5070230;28;19931;-72
2021/01/06 14:42:55;;;;;;;;;;;2.80;99.90;;;;;;5091276;28;20278;-68
2021/01/06 14:45:27;;;;;;;;;;;2.80;99.90;;;;;;5092453;28;19948;-71
2021/01/06 14:47:57;;;;;;;;;;;2.80;99.90;;;;;;5072709;28;19925;-72
2021/01/06 14:50:26;;;;;;;;;;;2.80;99.90;;;;;;5072150;28;19931;-73